Time;durP1;ratioP1;P1;durP2;ratioP2;P2;SDS_P1;SDS_P2;PMS_P1;PMS_P2;Temp;Humidity;BMP_temperature;BMP_pressure;BME280_temperature;BME280_humidity;BME280_pressure;Samples;Min_cycle;Max_cycle;Signal;HPM_P1;HPM_P2
2022/08/15 00:01:07;;;;;;;18.38;14.38;;;;;;;17.94;76.32;94596.56;6138741;23;20013;-83
2022/08/15 00:03:46;;;;;;;20.10;13.73;;;;;;;16.97;76.28;94473.81;6138695;23;20010;-84
2022/08/15 00:06:22;;;;;;;19.75;12.18;;;;;;;17.69;75.94;94571.63;6135954;23;20017;-84
2022/08/15 00:08:53;;;;;;;15.98;11.77;;;;;;;16.83;75.84;94432.38;6135632;23;20014;-83
2022/08/15 00:11:24;;;;;;;16.90;12.35;;;;;;;18.09;75.76;94614.69;6137829;23;20088;-84
2022/08/15 00:13:58;;;;;;;13.43;9.85;;;;;;;17.52;75.82;94538.81;6136591;23;20010;-84
2022/08/15 00:16:24;;;;;;;14.18;10.43;;;;;;;17.08;75.47;94460.00;6137605;23;20032;-84
2022/08/15 00:18:50;;;;;;;13.18;8.90;;;;;;;17.95;75.17;94589.31;6138263;23;20405;-84
2022/08/15 00:21:20;;;;;;;10.32;8.32;;;;;;;17.96;75.99;94599.72;6140191;23;20028;-84
2022/08/15 00:23:47;;;;;;;18.70;9.52;;;;;;;17.45;76.07;94534.00;6139888;23;20539;-84
2022/08/15 00:26:13;;;;;;;12.50;8.77;;;;;;;17.36;76.49;94536.00;6140514;23;20009;-83
2022/08/15 00:28:39;;;;;;;14.20;9.07;;;;;;;17.03;76.75;94489.66;6138366;23;20021;-84
2022/08/15 00:31:08;;;;;;;16.65;9.35;;;;;;;16.74;76.54;94448.50;6141186;23;20488;-84
2022/08/15 00:33:34;;;;;;;10.98;8.82;;;;;;;17.83;75.83;94582.03;6138679;23;20097;-84
2022/08/15 00:36:00;;;;;;;13.15;9.77;;;;;;;17.38;76.00;94508.88;6138022;23;20508;-84
2022/08/15 00:38:29;;;;;;;15.10;9.32;;;;;;;17.90;75.82;94584.16;6138003;23;20021;-83
2022/08/15 00:43:58;;;;;;;17.00;9.85;;;;;;;17.34;77.04;94555.09;6140148;23;20424;-84
2022/08/15 00:46:25;;;;;;;14.00;10.27;;;;;;;17.48;76.09;94540.59;6139928;23;20017;-83
2022/08/15 00:48:51;;;;;;;11.90;9.68;;;;;;;17.18;76.46;94513.94;6138020;23;20048;-83
2022/08/15 00:51:35;;;;;;;11.90;9.40;;;;;;;17.90;76.09;94603.72;6137533;23;20452;-83
2022/08/15 00:54:13;;;;;;;12.63;10.25;;;;;;;17.49;75.81;94524.19;6138481;23;20563;-84
2022/08/15 00:56:47;;;;;;;13.73;10.10;;;;;;;17.59;76.00;94553.25;6139266;23;20531;-84
2022/08/15 00:59:16;;;;;;;13.23;10.38;;;;;;;17.45;75.83;94539.38;6137614;23;20020;-84
2022/08/15 01:01:42;;;;;;;12.55;10.55;;;;;;;16.97;76.45;94481.84;6139313;23;20009;-84
2022/08/15 01:04:12;;;;;;;14.93;11.07;;;;;;;17.68;76.41;94583.47;6137599;23;20020;-84
2022/08/15 01:06:38;;;;;;;16.00;11.70;;;;;;;17.33;76.39;94529.38;6137994;23;20014;-83
2022/08/15 01:09:09;;;;;;;15.02;12.45;;;;;;;17.27;76.76;94532.63;6139736;23;20556;-84
2022/08/15 01:11:40;;;;;;;15.30;10.75;;;;;;;16.92;76.37;94463.31;6137699;23;20421;-84
2022/08/15 01:14:06;;;;;;;15.50;11.05;;;;;;;17.84;75.73;94582.81;6137956;23;20021;-84
2022/08/15 01:16:33;;;;;;;15.68;10.98;;;;;;;17.85;75.48;94574.44;6138154;23;20045;-84
2022/08/15 01:19:00;;;;;;;14.90;11.82;;;;;;;17.65;75.55;94543.13;6138084;23;20017;-84
2022/08/15 01:21:36;;;;;;;14.40;11.40;;;;;;;18.02;74.99;94576.13;6138690;23;20014;-84
2022/08/15 01:24:17;;;;;;;14.73;11.68;;;;;;;17.83;74.49;94546.38;6142080;23;20473;-84
2022/08/15 01:26:43;;;;;;;14.55;11.60;;;;;;;17.73;74.19;94512.75;6139783;23;20009;-84
2022/08/15 01:29:10;;;;;;;19.08;12.75;;;;;;;18.21;74.09;94579.06;6136810;23;20511;-84
2022/08/15 01:31:36;;;;;;;13.45;11.55;;;;;;;18.17;73.82;94594.25;6139537;23;20388;-84
2022/08/15 01:34:03;;;;;;;16.35;12.40;;;;;;;17.49;73.48;94481.28;6137753;23;20139;-84
2022/08/15 01:36:31;;;;;;;15.85;12.07;;;;;;;18.10;74.10;94584.06;6138112;23;20013;-84
2022/08/15 01:39:06;;;;;;;19.90;11.38;;;;;;;18.02;74.68;94578.81;6138549;23;20020;-84
2022/08/15 01:41:38;;;;;;;20.60;12.65;;;;;;;17.74;74.18;94520.47;6139762;23;20028;-84
2022/08/15 01:44:13;;;;;;;14.50;12.30;;;;;;;18.29;73.65;94583.53;6137404;23;20257;-84
2022/08/15 01:46:58;;;;;;;16.13;12.52;;;;;;;17.82;73.65;94518.00;6137408;23;20017;-83
2022/08/15 01:49:31;;;;;;;15.30;12.73;;;;;;;17.72;74.08;94529.94;6137741;23;20014;-84
2022/08/15 01:52:00;;;;;;;15.85;12.20;;;;;;;18.03;74.25;94575.78;6137910;23;20020;-83
2022/08/15 01:54:29;;;;;;;17.25;12.85;;;;;;;17.25;74.25;94452.53;6140162;23;20147;-84
2022/08/15 01:56:56;;;;;;;14.82;12.57;;;;;;;17.99;74.29;94568.75;6139060;23;20009;-84
2022/08/15 01:59:23;;;;;;;15.27;12.30;;;;;;;17.73;74.07;94513.53;6140132;23;20368;-83
2022/08/15 02:01:56;;;;;;;15.52;12.45;;;;;;;17.46;73.85;94446.34;6136574;23;20013;-84
2022/08/15 02:04:28;;;;;;;15.77;12.60;;;;;;;18.34;73.20;94564.50;6136752;23;20107;-84
2022/08/15 02:06:59;;;;;;;16.40;12.27;;;;;;;18.04;73.36;94533.66;6137245;23;20019;-84
2022/08/15 02:09:25;;;;;;;14.25;12.00;;;;;;;18.21;73.03;94549.53;6139652;23;20017;-84
2022/08/15 02:11:52;;;;;;;18.88;12.20;;;;;;;17.89;73.14;94504.81;6138352;23;20586;-84
2022/08/15 02:14:20;;;;;;;15.55;12.23;;;;;;;17.10;73.34;94396.16;6138644;23;20040;-84
2022/08/15 02:16:47;;;;;;;18.52;12.75;;;;;;;18.21;73.51;94564.84;6138663;23;20021;-84
2022/08/15 02:19:14;;;;;;;19.33;13.05;;;;;;;18.09;73.06;94541.47;6136297;23;20020;-85
2022/08/15 02:21:44;;;;;;;16.27;11.80;;;;;;;17.88;72.80;94513.97;6136116;23;20049;-84
2022/08/15 02:24:15;;;;;;;18.63;12.25;;;;;;;18.28;72.94;94579.28;6138147;23;20009;-84
2022/08/15 02:26:41;;;;;;;16.13;12.18;;;;;;;17.86;72.68;94521.56;6136289;23;20497;-85
2022/08/15 02:29:07;;;;;;;15.35;12.65;;;;;;;18.16;72.55;94544.38;6135700;23;20009;-84
2022/08/15 02:31:33;;;;;;;17.88;13.13;;;;;;;18.40;72.23;94579.25;6136771;23;20476;-85
2022/08/15 02:34:01;;;;;;;14.85;12.13;;;;;;;18.34;72.26;94579.81;6135644;23;20521;-84
2022/08/15 02:36:31;;;;;;;18.08;14.40;;;;;;;18.35;72.41;94579.50;6135693;23;20009;-84
2022/08/15 02:38:58;;;;;;;16.70;12.85;;;;;;;17.85;73.08;94544.91;6136630;23;20355;-85
2022/08/15 02:41:33;;;;;;;17.65;13.68;;;;;;;17.70;73.01;94524.91;6135813;23;20029;-84
2022/08/15 02:43:59;;;;;;;19.65;14.57;;;;;;;17.55;74.14;94541.59;6136761;23;20036;-85
2022/08/15 02:46:26;;;;;;;22.10;14.48;;;;;;;17.83;74.53;94602.72;6136664;23;20024;-85
2022/08/15 02:48:53;;;;;;;23.38;15.70;;;;;;;17.53;74.96;94567.19;6135927;23;20013;-84
2022/08/15 02:51:19;;;;;;;19.77;13.95;;;;;;;17.14;74.60;94502.31;6136878;23;20017;-85
2022/08/15 02:53:48;;;;;;;22.58;15.13;;;;;;;17.30;74.71;94542.69;6136728;23;20365;-84
2022/08/15 02:56:16;;;;;;;18.70;14.60;;;;;;;16.81;75.08;94494.28;6138197;23;20009;-84
2022/08/15 02:58:41;;;;;;;20.27;15.38;;;;;;;17.09;75.82;94547.31;6136760;23;20328;-84
2022/08/15 03:01:11;;;;;;;21.65;16.17;;;;;;;17.63;75.33;94613.16;6138422;23;20365;-85
2022/08/15 03:03:42;;;;;;;21.98;15.15;;;;;;;17.06;75.73;94529.97;6138707;23;20037;-85
2022/08/15 03:06:10;;;;;;;20.08;16.10;;;;;;;17.39;76.18;94621.13;6138664;23;20010;-84
2022/08/15 03:08:37;;;;;;;23.85;16.67;;;;;;;17.32;76.70;94618.16;6136255;23;20017;-84
2022/08/15 03:11:05;;;;;;;24.00;17.88;;;;;;;17.00;77.25;94590.25;6139339;23;20010;-85
2022/08/15 03:13:31;;;;;;;23.63;17.48;;;;;;;16.82;77.44;94570.84;6136652;23;20017;-84
2022/08/15 03:15:57;;;;;;;24.85;17.85;;;;;;;17.30;77.04;94626.53;6134155;23;20039;-84
2022/08/15 03:18:25;;;;;;;23.23;17.10;;;;;;;16.71;76.71;94532.16;6135600;23;20079;-85
2022/08/15 03:20:51;;;;;;;23.67;18.42;;;;;;;17.47;76.34;94638.22;6136478;23;20461;-85
2022/08/15 03:23:19;;;;;;;26.40;18.55;;;;;;;17.10;76.46;94589.03;6138926;23;20011;-84
2022/08/15 03:25:49;;;;;;;26.17;18.42;;;;;;;17.28;77.01;94647.53;6137114;23;20595;-84
2022/08/15 03:28:23;;;;;;;25.98;19.02;;;;;;;16.49;76.84;94519.84;6138181;23;20508;-84
2022/08/15 03:30:49;;;;;;;28.10;18.38;;;;;;;16.69;77.41;94579.91;6138393;23;20024;-85
2022/08/15 03:33:15;;;;;;;26.30;20.00;;;;;;;17.08;77.78;94653.69;6136479;23;20010;-84
2022/08/15 03:35:48;;;;;;;26.05;19.33;;;;;;;17.02;78.05;94654.19;6136433;23;20091;-84
2022/08/15 03:38:14;;;;;;;28.63;21.40;;;;;;;17.05;77.91;94662.34;6136912;23;20528;-84
2022/08/15 03:40:43;;;;;;;30.27;21.92;;;;;;;16.59;77.70;94582.94;6136158;23;20032;-84
2022/08/15 03:43:31;;;;;;;27.92;20.45;;;;;;;16.60;77.57;94584.50;6137700;23;20016;-84
2022/08/15 03:46:02;;;;;;;29.15;20.88;;;;;;;17.18;77.16;94658.63;6136329;23;20017;-85
2022/08/15 03:48:33;;;;;;;;;;;;;;;17.27;76.96;94650.53;6136598;23;20025;-84
2022/08/15 03:51:01;;;;;;;28.48;20.83;;;;;;;16.47;77.01;94554.22;6136026;23;19986;-84
2022/08/15 03:53:29;;;;;;;30.50;21.35;;;;;;;17.32;76.54;94647.63;6135914;23;20080;-84
2022/08/15 03:55:58;;;;;;;32.65;21.80;;;;;;;17.20;76.79;94658.31;6137742;23;20010;-84
2022/08/15 03:58:23;;;;;;;30.73;21.58;;;;;;;16.85;76.81;94599.66;6135950;23;20328;-83
2022/08/15 04:00:49;;;;;;;33.05;23.08;;;;;;;16.92;77.18;94620.53;6138110;23;20013;-83
2022/08/15 04:03:23;;;;;;;33.72;22.50;;;;;;;17.23;76.99;94658.44;6136703;23;20014;-84
2022/08/15 04:05:52;;;;;;;34.53;22.65;;;;;;;17.29;76.71;94659.03;6135822;23;20029;-84
2022/08/15 04:08:23;;;;;;;32.72;22.63;;;;;;;16.88;76.28;94598.97;6138447;23;20017;-85
2022/08/15 04:10:51;;;;;;;32.15;23.08;;;;;;;17.29;76.73;94673.22;6137506;23;20040;-84
2022/08/15 04:13:24;;;;;;;33.85;23.35;;;;;;;16.36;76.64;94526.25;6137473;23;20084;-84
2022/08/15 04:15:55;;;;;;;31.85;23.02;;;;;;;17.21;76.67;94651.84;6136890;23;20024;-85
2022/08/15 04:18:20;;;;;;;33.67;23.27;;;;;;;17.35;76.89;94665.75;6137036;23;20525;-84
2022/08/15 04:20:47;;;;;;;34.33;24.50;;;;;;;17.07;76.56;94614.59;6137031;23;20098;-84
2022/08/15 04:23:13;;;;;;;34.30;24.23;;;;;;;17.43;76.83;94656.06;6139451;23;20019;-84
2022/08/15 04:25:41;;;;;;;36.35;25.38;;;;;;;17.37;76.87;94660.84;6139221;23;20088;-84
2022/08/15 04:28:07;;;;;;;34.17;24.65;;;;;;;17.28;76.50;94626.09;6136800;23;20780;-84
2022/08/15 04:30:36;;;;;;;34.95;24.77;;;;;;;17.58;76.08;94652.78;6136424;23;20028;-84
2022/08/15 04:33:12;;;;;;;33.50;23.33;;;;;;;16.92;75.72;94551.69;6138272;23;20010;-85
2022/08/15 04:35:40;;;;;;;39.60;25.77;;;;;;;17.54;76.05;94647.31;6136780;23;20380;-84
2022/08/15 04:38:06;;;;;;;35.88;25.88;;;;;;;17.13;75.97;94578.47;6136885;23;20006;-84
2022/08/15 04:40:32;;;;;;;40.78;27.27;;;;;;;17.59;75.63;94624.84;6135952;23;20405;-84
2022/08/15 04:43:00;;;;;;;40.92;28.10;;;;;;;17.33;75.71;94601.75;6136457;23;20309;-84
2022/08/15 04:45:28;;;;;;;38.63;26.25;;;;;;;17.71;75.89;94651.72;6137244;23;20100;-84
2022/08/15 04:47:54;;;;;;;39.13;26.60;;;;;;;17.63;75.52;94626.56;6138305;23;20017;-85
2022/08/15 04:50:20;;;;;;;40.22;28.52;;;;;;;17.94;75.47;94654.81;6136061;23;20116;-85
2022/08/15 04:52:51;;;;;;;39.83;28.00;;;;;;;17.92;75.57;94662.44;6138574;23;20013;-85
2022/08/15 04:55:19;;;;;;;39.55;28.17;;;;;;;16.57;75.09;94429.88;6138114;23;20520;-85
2022/08/15 04:57:45;;;;;;;41.67;30.23;;;;;;;18.09;74.84;94660.31;6138255;23;20006;-84
2022/08/15 05:00:15;;;;;;;42.55;29.58;;;;;;;17.07;74.51;94488.69;6134136;23;20021;-84
2022/08/15 05:02:40;;;;;;;43.63;30.20;;;;;;;18.38;73.97;94653.22;6136252;23;20018;-85
2022/08/15 05:05:09;;;;;;;43.22;29.45;;;;;;;17.99;73.89;94587.53;6138286;23;20458;-84
2022/08/15 05:07:35;;;;;;;44.92;30.77;;;;;;;18.49;73.18;94641.69;6140639;23;20024;-85
2022/08/15 05:10:02;;;;;;;41.35;28.83;;;;;;;18.44;72.88;94623.13;6137217;23;20009;-85
2022/08/15 05:12:28;;;;;;;44.58;30.73;;;;;;;18.39;73.81;94650.16;6139339;23;20092;-84
2022/08/15 05:14:56;;;;;;;41.42;29.85;;;;;;;18.18;74.22;94628.03;6136977;23;20013;-84
2022/08/15 05:17:21;;;;;;;45.55;30.77;;;;;;;18.11;73.47;94582.16;6139054;23;20005;-84
2022/08/15 05:19:47;;;;;;;47.92;31.92;;;;;;;18.35;73.40;94594.81;6137805;23;20016;-84
2022/08/15 05:22:12;;;;;;;38.80;29.42;;;;;;;18.13;73.17;94570.00;6138418;23;20021;-84
2022/08/15 05:24:38;;;;;;;40.97;29.70;;;;;;;17.37;73.45;94470.56;6137414;23;20067;-84
2022/08/15 05:27:05;;;;;;;42.13;29.90;;;;;;;18.23;73.71;94590.25;6138031;23;20115;-84
2022/08/15 05:29:31;;;;;;;43.58;30.48;;;;;;;17.89;73.12;94532.41;6138129;23;20908;-84
2022/08/15 05:31:58;;;;;;;39.75;29.95;;;;;;;18.32;73.45;94601.63;6136766;23;20044;-84
2022/08/15 05:34:23;;;;;;;41.10;29.30;;;;;;;18.71;73.64;94653.91;6136228;23;20037;-85
2022/08/15 05:36:49;;;;;;;43.50;29.95;;;;;;;18.46;73.10;94591.31;6137601;23;20416;-85
2022/08/15 05:39:22;;;;;;;45.25;29.88;;;;;;;19.02;72.67;94650.63;6135080;23;20115;-84
2022/08/15 05:42:05;;;;;;;43.20;29.38;;;;;;;19.01;72.61;94657.09;6106962;23;20069;-84
2022/08/15 05:44:36;;;;;;;42.03;29.08;;;;;;;18.86;72.97;94663.16;6106788;23;20430;-84
2022/08/15 05:47:09;;;;;;;;;;;;;;;18.75;73.04;94656.72;6107763;23;20072;-85
2022/08/15 05:49:45;;;;;;;47.42;31.92;;;;;;;18.81;73.36;94658.03;6107499;23;19922;-85
2022/08/15 05:52:34;;;;;;;58.20;31.17;;;;;;;18.61;73.53;94632.09;6106799;23;20088;-84
2022/08/15 05:55:08;;;;;;;42.85;30.30;;;;;;;19.01;73.23;94659.00;6109932;23;20336;-84
2022/08/15 05:57:42;;;;;;;45.80;28.88;;;;;;;19.04;72.62;94658.34;6107981;23;20346;-84
2022/08/15 06:00:12;;;;;;;47.85;28.88;;;;;;;18.41;72.87;94558.56;6106953;23;20168;-85
2022/08/15 06:02:43;;;;;;;47.75;27.35;;;;;;;19.05;72.98;94659.91;6105591;23;20054;-84
2022/08/15 06:05:32;;;;;;;44.00;25.63;;;;;;;18.72;72.57;94590.22;6106416;23;21034;-84
2022/08/15 06:08:00;;;;;;;42.13;27.27;;;;;;;18.60;71.81;94533.84;6105768;23;20551;-84
2022/08/15 06:10:55;;;;;;;36.00;23.25;;;;;;;19.27;71.72;94644.06;6105247;23;20101;-84
2022/08/15 06:13:32;;;;;;;39.03;22.58;;;;;;;19.40;71.61;94663.63;6104347;23;20445;-84
2022/08/15 06:16:16;;;;;;;33.92;22.10;;;;;;;18.88;71.24;94567.69;6108220;23;20128;-85
2022/08/15 06:18:43;;;;;;;35.55;22.98;;;;;;;19.53;70.89;94667.84;6110326;23;20354;-85
2022/08/15 06:21:15;;;;;;;42.13;22.35;;;;;;;19.61;71.25;94666.13;6109731;23;20080;-85
2022/08/15 06:24:07;;;;;;;34.50;24.27;;;;;;;19.14;71.05;94596.06;6106463;23;20283;-86
2022/08/15 06:26:59;;;;;;;39.25;24.58;;;;;;;19.59;71.61;94663.81;6107948;23;20018;-85
2022/08/15 06:29:40;;;;;;;;;;;;;;;19.63;71.15;94670.06;6109177;23;20041;-85
2022/08/15 06:32:13;;;;;;;42.55;25.70;;;;;;;19.26;70.87;94625.56;6109898;23;19923;-85
2022/08/15 06:34:55;;;;;;;39.90;27.05;;;;;;;19.40;70.04;94660.94;6110094;23;20010;-85
2022/08/15 06:37:24;;;;;;;40.83;29.73;;;;;;;19.33;69.88;94676.88;6107898;23;20021;-85
2022/08/15 06:39:58;;;;;;;45.00;30.25;;;;;;;18.71;69.97;94604.75;6115342;23;20021;-85
2022/08/15 06:42:35;;;;;;;42.85;31.60;;;;;;;19.24;69.90;94668.94;6135661;23;20519;-85
2022/08/15 06:45:07;;;;;;;40.38;30.90;;;;;;;18.47;69.76;94538.41;6136451;23;20096;-85
2022/08/15 06:47:33;;;;;;;40.10;29.77;;;;;;;19.40;69.52;94666.31;6136020;23;20020;-85
2022/08/15 06:50:11;;;;;;;44.92;30.50;;;;;;;19.05;69.11;94620.38;6135929;23;20014;-85
2022/08/15 06:52:38;;;;;;;38.65;29.80;;;;;;;18.78;69.33;94580.81;6138589;23;20056;-85
2022/08/15 06:55:04;;;;;;;40.47;30.80;;;;;;;18.97;69.13;94612.44;6135419;23;20013;-85
2022/08/15 06:57:50;;;;;;;44.33;31.00;;;;;;;19.38;69.33;94689.28;6136611;23;20010;-85
2022/08/15 07:00:22;;;;;;;42.55;29.95;;;;;;;19.34;69.62;94674.97;6135132;23;20440;-85
2022/08/15 07:03:05;;;;;;;44.00;30.98;;;;;;;19.32;69.75;94687.94;6135579;23;20147;-84
2022/08/15 07:05:51;;;;;;;45.03;31.17;;;;;;;18.74;69.95;94606.78;6136284;23;20032;-84
2022/08/15 07:08:40;;;;;;;43.78;30.23;;;;;;;19.40;69.71;94695.09;6134498;23;20329;-85
2022/08/15 07:11:27;;;;;;;45.80;31.52;;;;;;;19.51;69.45;94685.47;6134714;23;20511;-85
2022/08/15 07:14:14;;;;;;;47.03;32.28;;;;;;;19.50;70.27;94694.66;6134695;23;20155;-86
2022/08/15 07:16:48;;;;;;;39.10;30.33;;;;;;;19.61;70.48;94693.81;6134177;23;20024;-84
2022/08/15 07:19:15;;;;;;;43.88;30.50;;;;;;;19.40;69.17;94642.09;6134732;23;20009;-84
2022/08/15 07:21:40;;;;;;;51.75;32.15;;;;;;;18.93;68.93;94552.44;6134528;23;20013;-84
2022/08/15 07:24:06;;;;;;;46.72;30.60;;;;;;;20.06;68.95;94686.59;6135901;23;20029;-85
2022/08/15 07:26:59;;;;;;;40.65;31.08;;;;;;;20.18;67.61;94681.91;6135867;23;20440;-85
2022/08/15 07:29:24;;;;;;;48.00;31.80;;;;;;;20.33;67.78;94680.34;6122770;23;20028;-84
2022/08/15 07:31:58;;;;;;;39.13;29.95;;;;;;;19.57;66.71;94542.34;6135056;23;20021;-85
2022/08/15 07:34:24;;;;;;;50.63;33.72;;;;;;;19.19;66.73;94488.28;6137822;23;20013;-84
2022/08/15 07:37:04;;;;;;;40.45;30.95;;;;;;;20.24;66.68;94658.19;6135114;23;20551;-85
2022/08/15 07:39:38;;;;;;;42.08;31.95;;;;;;;19.86;66.90;94610.31;6135230;23;20061;-85
2022/08/15 07:42:15;;;;;;;47.67;31.83;;;;;;;20.47;67.05;94690.72;6133565;23;20036;-85
2022/08/15 07:44:54;;;;;;;41.60;31.63;;;;;;;20.49;66.42;94681.19;6132944;23;20017;-85
2022/08/15 07:47:25;;;;;;;43.05;30.20;;;;;;;20.71;66.04;94699.41;6135359;23;20291;-85
2022/08/15 07:50:10;;;;;;;42.22;31.15;;;;;;;20.65;65.83;94692.72;6134944;23;20017;-85
2022/08/15 07:52:37;;;;;;;41.78;30.63;;;;;;;20.78;65.65;94709.56;6135768;23;20452;-85
2022/08/15 07:55:19;;;;;;;38.03;28.10;;;;;;;20.68;65.79;94699.31;6134849;23;20013;-85
2022/08/15 07:58:03;;;;;;;38.97;31.02;;;;;;;20.80;65.30;94701.94;6135775;23;20021;-85
2022/08/15 08:00:32;;;;;;;40.53;29.52;;;;;;;20.62;65.60;94674.56;6138095;23;20009;-85
2022/08/15 08:03:20;;;;;;;40.80;29.60;;;;;;;20.83;65.25;94689.69;6135885;23;20420;-85
2022/08/15 08:06:17;;;;;;;38.53;29.10;;;;;;;20.92;64.49;94707.22;6136324;23;20127;-85
2022/08/15 08:09:17;;;;;;;36.22;29.35;;;;;;;20.85;65.15;94725.13;6125858;23;20503;-85
2022/08/15 08:11:48;;;;;;;37.50;28.85;;;;;;;21.01;64.90;94705.13;6136656;23;20014;-85
2022/08/15 08:14:55;;;;;;;35.28;27.33;;;;;;;20.63;65.03;94659.19;6134766;23;20482;-86
2022/08/15 08:17:37;;;;;;;34.85;26.15;;;;;;;20.55;64.36;94617.81;6134046;23;20020;-85
2022/08/15 08:20:19;;;;;;;31.60;26.25;;;;;;;21.13;64.39;94674.59;6135506;23;20484;-85
2022/08/15 08:22:55;;;;;;;40.00;28.83;;;;;;;20.87;63.90;94612.38;6139054;23;20013;-85
2022/08/15 08:25:26;;;;;;;37.95;27.77;;;;;;;21.22;63.75;94707.53;6137242;23;20037;-85
2022/08/15 08:28:17;;;;;;;;;;;;;;;21.15;64.19;94710.81;6139118;23;20041;-86
2022/08/15 08:31:02;;;;;;;40.17;25.40;;;;;;;20.92;64.35;94709.91;6139542;23;19943;-85
2022/08/15 08:33:43;;;;;;;37.00;25.70;;;;;;;21.02;65.21;94698.59;6135846;23;20060;-85
2022/08/15 08:36:21;;;;;;;34.45;25.20;;;;;;;21.25;64.05;94701.44;6135747;23;20467;-85
2022/08/15 08:39:22;;;;;;;36.47;25.70;;;;;;;21.25;63.08;94695.28;6136735;23;20036;-86
2022/08/15 08:42:11;;;;;;;35.05;26.55;;;;;;;21.52;63.93;94699.69;6079589;23;20040;-86
2022/08/15 08:45:12;;;;;;;33.67;25.13;;;;;;;20.77;62.63;94586.75;6083951;23;20591;-85
2022/08/15 08:48:14;;;;;;;31.05;25.25;;;;;;;21.35;62.87;94698.22;6083968;23;20097;-85
2022/08/15 08:50:54;;;;;;;28.70;24.40;;;;;;;21.22;62.50;94650.13;6083549;23;20021;-85
2022/08/15 08:54:04;;;;;;;34.10;23.60;;;;;;;21.61;62.38;94702.19;6109274;23;20459;-85
2022/08/15 08:56:38;;;;;;;38.67;24.50;;;;;;;21.44;62.29;94671.78;6082923;23;20014;-86
2022/08/15 08:59:31;;;;;;;30.75;23.90;;;;;;;21.50;61.20;94697.38;6081285;23;20025;-86
2022/08/15 09:02:12;;;;;;;28.13;24.80;;;;;;;21.46;60.64;94677.63;6110358;23;20279;-86
2022/08/15 09:04:44;;;;;;;32.28;25.65;;;;;;;21.51;60.71;94671.94;6083586;23;20079;-85
2022/08/15 09:07:14;;;;;;;31.77;25.33;;;;;;;21.60;60.51;94685.22;6106889;23;20783;-86
2022/08/15 09:09:43;;;;;;;35.55;26.33;;;;;;;20.54;60.83;94495.03;6081971;23;20119;-85
2022/08/15 09:15:05;;;;;;;31.65;25.23;;;;;;;21.95;59.98;94668.94;6109695;23;20353;-86
2022/08/15 09:17:34;;;;;;;28.48;23.40;;;;;;;21.99;58.92;94674.44;6084114;23;20454;-86
2022/08/15 09:20:10;;;;;;;31.33;23.73;;;;;;;21.97;58.15;94649.72;6109515;23;20017;-86
2022/08/15 09:22:36;;;;;;;31.35;24.40;;;;;;;21.92;58.82;94624.53;6082111;23;20029;-85
2022/08/15 09:25:01;;;;;;;30.38;24.27;;;;;;;22.03;58.16;94634.78;6081730;23;20460;-86
2022/08/15 09:27:50;;;;;;;28.85;23.67;;;;;;;21.92;58.11;94610.25;6109018;23;20014;-86
2022/08/15 09:30:18;;;;;;;33.83;24.67;;;;;;;22.40;58.63;94662.06;6082650;23;20009;-86
2022/08/15 09:33:15;;;;;;;31.17;23.77;;;;;;;22.51;58.13;94685.41;6082060;23;20541;-85
2022/08/15 09:36:12;;;;;;;30.42;23.60;;;;;;;22.52;57.99;94664.56;6035735;23;20021;-86
2022/08/15 09:38:58;;;;;;;25.88;22.30;;;;;;;22.22;57.86;94623.94;6080801;23;20069;-85
2022/08/15 09:41:33;;;;;;;28.95;22.20;;;;;;;22.61;57.80;94660.47;6126740;23;20034;-85
2022/08/15 09:44:29;;;;;;;27.17;22.77;;;;;;;22.25;57.58;94599.69;6139833;23;20010;-86
2022/08/15 09:47:08;;;;;;;29.48;22.85;;;;;;;22.58;57.54;94679.34;6136875;23;20088;-86
2022/08/15 09:50:07;;;;;;;28.92;23.23;;;;;;;22.47;57.24;94645.97;6136473;23;20021;-86
2022/08/15 09:53:01;;;;;;;26.90;20.88;;;;;;;22.24;57.53;94616.25;6136063;23;20447;-85
2022/08/15 09:55:46;;;;;;;26.50;21.25;;;;;;;22.50;57.47;94602.81;6138812;23;20056;-85
2022/08/15 09:58:25;;;;;;;24.77;20.60;;;;;;;23.30;56.21;94652.25;6138629;23;20009;-85
2022/08/15 10:00:53;;;;;;;23.60;19.88;;;;;;;23.81;54.21;94652.50;6137033;23;20020;-86
2022/08/15 10:03:44;;;;;;;22.65;19.52;;;;;;;24.50;52.53;94666.38;6139002;23;20016;-85
2022/08/15 10:06:14;;;;;;;23.80;18.77;;;;;;;24.89;50.96;94656.63;6137064;23;20071;-86
2022/08/15 10:08:54;;;;;;;21.50;17.17;;;;;;;25.62;49.17;94652.06;6135124;23;20223;-85
2022/08/15 10:11:32;;;;;;;20.30;17.13;;;;;;;25.84;47.05;94573.38;6134875;23;20013;-85
2022/08/15 10:14:05;;;;;;;19.95;16.85;;;;;;;26.72;45.65;94613.47;6130354;23;20014;-84
2022/08/15 10:16:36;;;;;;;18.10;15.15;;;;;;;27.54;44.19;94642.13;6127141;23;20013;-85
2022/08/15 10:19:02;;;;;;;18.10;15.50;;;;;;;27.58;44.03;94642.91;6136561;23;20013;-85
2022/08/15 10:21:37;;;;;;;25.55;15.27;;;;;;;27.68;44.00;94635.09;6135191;23;20442;-85
2022/08/15 10:24:25;;;;;;;16.83;14.82;;;;;;;27.32;43.85;94577.97;6134992;23;20013;-85
2022/08/15 10:27:20;;;;;;;19.30;14.48;;;;;;;27.38;43.84;94632.84;6134931;23;20013;-86
2022/08/15 10:29:51;;;;;;;17.38;13.50;;;;;;;27.09;43.05;94573.00;6136279;23;20021;-85
2022/08/15 10:32:43;;;;;;;15.18;13.32;;;;;;;25.90;42.81;94368.88;6135461;23;20018;-84
2022/08/15 10:35:25;;;;;;;14.07;12.57;;;;;;;27.48;42.25;94572.88;6131168;23;20017;-84
2022/08/15 10:38:00;;;;;;;19.65;13.25;;;;;;;27.74;41.55;94562.66;6137912;23;20068;-85
2022/08/15 10:40:34;;;;;;;14.25;12.18;;;;;;;28.59;40.46;94633.03;6136789;23;20999;-84
2022/08/15 10:43:26;;;;;;;12.80;11.18;;;;;;;28.82;39.03;94621.56;6135519;23;20020;-84
2022/08/15 10:45:59;;;;;;;15.15;11.40;;;;;;;29.15;38.58;94609.91;6131164;23;20013;-85
2022/08/15 10:48:34;;;;;;;15.85;11.75;;;;;;;29.14;39.23;94628.25;6139427;23;20103;-86
2022/08/15 10:51:10;;;;;;;12.95;11.57;;;;;;;29.01;39.42;94627.22;6141744;23;20024;-86
2022/08/15 10:53:45;;;;;;;19.08;12.20;;;;;;;29.08;39.75;94616.22;6142654;23;20020;-86
2022/08/15 10:56:28;;;;;;;20.13;13.68;;;;;;;29.00;39.23;94622.16;6136040;23;20013;-86
2022/08/15 10:59:05;;;;;;;14.75;12.68;;;;;;;28.36;40.60;94581.75;6138707;23;20312;-86
2022/08/15 11:01:33;;;;;;;16.67;11.82;;;;;;;28.46;40.27;94556.34;6136637;23;20448;-85
2022/08/15 11:04:22;;;;;;;18.27;12.70;;;;;;;28.51;39.52;94555.16;6136889;23;20092;-86
2022/08/15 11:06:49;;;;;;;14.98;12.48;;;;;;;28.76;40.10;94591.22;6135560;23;20024;-86
2022/08/15 11:09:18;;;;;;;17.70;12.07;;;;;;;28.63;38.92;94571.00;6137375;23;20057;-86
2022/08/15 11:11:50;;;;;;;15.57;12.02;;;;;;;29.14;39.14;94617.34;6138613;23;20045;-86
2022/08/15 11:14:39;;;;;;;15.52;12.48;;;;;;;29.09;37.69;94578.78;6138754;23;20014;-86
2022/08/15 11:17:14;;;;;;;12.80;11.05;;;;;;;29.73;37.20;94608.91;6138311;23;20040;-85
2022/08/15 11:19:44;;;;;;;14.35;10.70;;;;;;;30.06;36.36;94614.78;6136581;23;20036;-86
2022/08/15 11:22:19;;;;;;;14.25;10.90;;;;;;;29.72;37.12;94546.47;6136164;23;20028;-85
2022/08/15 11:25:00;;;;;;;13.43;11.50;;;;;;;29.97;37.29;94609.81;6135356;23;20397;-86
2022/08/15 11:27:25;;;;;;;;;;;;;;;30.07;36.45;94595.19;6138497;23;20079;-86
2022/08/15 11:29:55;;;;;;;12.57;10.00;;;;;;;29.85;37.19;94602.88;6135405;23;20275;-85
2022/08/15 11:32:32;;;;;;;11.85;10.57;;;;;;;29.72;37.72;94598.38;6134870;23;20010;-86
2022/08/15 11:35:07;;;;;;;13.45;10.80;;;;;;;29.30;37.23;94556.69;6135342;23;20067;-86
2022/08/15 11:37:40;;;;;;;17.05;11.00;;;;;;;28.95;37.77;94585.16;6135566;23;20223;-86
2022/08/15 11:40:31;;;;;;;12.38;9.73;;;;;;;29.13;37.66;94590.47;6134876;23;20035;-86
2022/08/15 11:43:00;;;;;;;13.93;10.13;;;;;;;28.76;37.96;94553.75;6124696;23;20053;-86
2022/08/15 11:45:34;;;;;;;13.57;10.45;;;;;;;28.26;38.21;94503.53;6135270;23;20036;-86
2022/08/15 11:48:01;;;;;;;11.57;10.38;;;;;;;28.14;39.11;94532.06;6135247;23;20576;-86
2022/08/15 11:50:29;;;;;;;14.00;10.90;;;;;;;29.11;38.21;94601.00;6135139;23;20029;-86
2022/08/15 11:53:11;;;;;;;11.20;10.05;;;;;;;28.95;38.54;94592.59;6136934;23;20010;-85
2022/08/15 11:55:37;;;;;;;11.23;10.02;;;;;;;29.37;37.86;94597.63;6136166;23;20009;-85